sensor_id;sensor_type;location;lat;lon;timestamp;P1;durP1;ratioP1;P2;durP2;ratioP2
26325;SDS011;14032;52.510;7.342;2022-11-24T00:01:14;23.15;;;5.72;;
26325;SDS011;14032;52.510;7.342;2022-11-24T00:03:44;25.08;;;5.97;;
26325;SDS011;14032;52.510;7.342;2022-11-24T00:06:15;22.67;;;5.93;;
26325;SDS011;14032;52.510;7.342;2022-11-24T00:08:42;21.15;;;5.45;;
26325;SDS011;14032;52.510;7.342;2022-11-24T00:11:10;25.77;;;6.22;;
26325;SDS011;14032;52.510;7.342;2022-11-24T00:13:38;25.92;;;5.78;;
26325;SDS011;14032;52.510;7.342;2022-11-24T00:18:30;22.63;;;5.65;;
26325;SDS011;14032;52.510;7.342;2022-11-24T00:20:55;21.50;;;4.88;;
26325;SDS011;14032;52.510;7.342;2022-11-24T00:23:21;26.48;;;5.30;;
26325;SDS011;14032;52.510;7.342;2022-11-24T00:25:46;24.08;;;4.78;;
26325;SDS011;14032;52.510;7.342;2022-11-24T00:28:12;31.67;;;5.25;;
26325;SDS011;14032;52.510;7.342;2022-11-24T00:30:38;21.55;;;4.70;;
26325;SDS011;14032;52.510;7.342;2022-11-24T00:33:03;26.58;;;5.78;;
26325;SDS011;14032;52.510;7.342;2022-11-24T00:35:29;25.90;;;5.53;;
26325;SDS011;14032;52.510;7.342;2022-11-24T00:37:54;23.92;;;4.38;;
26325;SDS011;14032;52.510;7.342;2022-11-24T00:40:20;20.38;;;4.97;;
26325;SDS011;14032;52.510;7.342;2022-11-24T00:42:45;24.90;;;4.88;;
26325;SDS011;14032;52.510;7.342;2022-11-24T00:45:11;21.25;;;5.00;;
26325;SDS011;14032;52.510;7.342;2022-11-24T00:47:36;27.83;;;5.35;;
26325;SDS011;14032;52.510;7.342;2022-11-24T00:50:02;29.95;;;5.38;;
26325;SDS011;14032;52.510;7.342;2022-11-24T00:52:28;24.67;;;5.07;;
26325;SDS011;14032;52.510;7.342;2022-11-24T00:54:53;24.23;;;4.90;;
26325;SDS011;14032;52.510;7.342;2022-11-24T00:57:19;29.15;;;4.85;;
26325;SDS011;14032;52.510;7.342;2022-11-24T00:59:45;22.27;;;4.93;;
26325;SDS011;14032;52.510;7.342;2022-11-24T01:02:10;21.38;;;4.45;;
26325;SDS011;14032;52.510;7.342;2022-11-24T01:04:36;27.85;;;5.45;;
26325;SDS011;14032;52.510;7.342;2022-11-24T01:07:01;27.67;;;4.88;;
26325;SDS011;14032;52.510;7.342;2022-11-24T01:09:27;29.65;;;4.70;;
26325;SDS011;14032;52.510;7.342;2022-11-24T01:11:52;23.70;;;4.53;;
26325;SDS011;14032;52.510;7.342;2022-11-24T01:14:27;31.35;;;6.00;;
26325;SDS011;14032;52.510;7.342;2022-11-24T01:16:54;25.67;;;4.85;;
26325;SDS011;14032;52.510;7.342;2022-11-24T01:19:20;24.45;;;4.10;;
26325;SDS011;14032;52.510;7.342;2022-11-24T01:21:46;27.10;;;5.30;;
26325;SDS011;14032;52.510;7.342;2022-11-24T01:24:12;22.50;;;4.85;;
26325;SDS011;14032;52.510;7.342;2022-11-24T01:26:38;29.20;;;4.72;;
26325;SDS011;14032;52.510;7.342;2022-11-24T01:29:03;36.97;;;5.88;;
26325;SDS011;14032;52.510;7.342;2022-11-24T01:31:29;18.98;;;4.40;;
26325;SDS011;14032;52.510;7.342;2022-11-24T01:33:56;35.35;;;6.18;;
26325;SDS011;14032;52.510;7.342;2022-11-24T01:36:22;27.60;;;4.72;;
26325;SDS011;14032;52.510;7.342;2022-11-24T01:38:48;25.23;;;4.88;;
26325;SDS011;14032;52.510;7.342;2022-11-24T01:41:23;36.00;;;5.15;;
26325;SDS011;14032;52.510;7.342;2022-11-24T01:43:49;24.52;;;4.65;;
26325;SDS011;14032;52.510;7.342;2022-11-24T01:46:27;22.52;;;4.43;;
26325;SDS011;14032;52.510;7.342;2022-11-24T01:49:05;24.23;;;4.68;;
26325;SDS011;14032;52.510;7.342;2022-11-24T01:51:42;22.38;;;4.60;;
26325;SDS011;14032;52.510;7.342;2022-11-24T01:54:32;24.52;;;4.20;;
26325;SDS011;14032;52.510;7.342;2022-11-24T01:57:23;20.08;;;4.45;;
26325;SDS011;14032;52.510;7.342;2022-11-24T01:59:50;33.17;;;4.53;;
26325;SDS011;14032;52.510;7.342;2022-11-24T02:02:23;30.42;;;5.78;;
26325;SDS011;14032;52.510;7.342;2022-11-24T02:04:52;19.30;;;4.18;;
26325;SDS011;14032;52.510;7.342;2022-11-24T02:07:18;29.02;;;4.20;;
26325;SDS011;14032;52.510;7.342;2022-11-24T02:09:46;27.38;;;5.80;;
26325;SDS011;14032;52.510;7.342;2022-11-24T02:12:15;29.98;;;4.97;;
26325;SDS011;14032;52.510;7.342;2022-11-24T02:14:41;28.88;;;4.50;;
26325;SDS011;14032;52.510;7.342;2022-11-24T02:17:08;25.45;;;4.60;;
26325;SDS011;14032;52.510;7.342;2022-11-24T02:24:55;27.30;;;4.68;;
26325;SDS011;14032;52.510;7.342;2022-11-24T02:30:00;27.00;;;4.30;;
26325;SDS011;14032;52.510;7.342;2022-11-24T02:32:26;26.13;;;4.63;;
26325;SDS011;14032;52.510;7.342;2022-11-24T02:34:58;22.73;;;4.28;;
26325;SDS011;14032;52.510;7.342;2022-11-24T02:37:25;26.23;;;4.72;;
26325;SDS011;14032;52.510;7.342;2022-11-24T02:39:51;29.23;;;4.72;;
26325;SDS011;14032;52.510;7.342;2022-11-24T02:42:16;20.77;;;4.70;;
26325;SDS011;14032;52.510;7.342;2022-11-24T02:44:44;30.38;;;5.03;;
26325;SDS011;14032;52.510;7.342;2022-11-24T02:47:13;25.75;;;4.40;;
26325;SDS011;14032;52.510;7.342;2022-11-24T02:49:38;26.30;;;4.70;;
26325;SDS011;14032;52.510;7.342;2022-11-24T02:52:04;32.17;;;4.65;;
26325;SDS011;14032;52.510;7.342;2022-11-24T02:54:30;21.90;;;3.95;;
26325;SDS011;14032;52.510;7.342;2022-11-24T02:56:56;29.55;;;4.28;;
26325;SDS011;14032;52.510;7.342;2022-11-24T02:59:22;24.50;;;4.40;;
26325;SDS011;14032;52.510;7.342;2022-11-24T03:01:48;17.35;;;3.88;;
26325;SDS011;14032;52.510;7.342;2022-11-24T03:04:14;25.98;;;4.15;;
26325;SDS011;14032;52.510;7.342;2022-11-24T03:06:39;20.33;;;4.28;;
26325;SDS011;14032;52.510;7.342;2022-11-24T03:09:05;25.55;;;4.07;;
26325;SDS011;14032;52.510;7.342;2022-11-24T03:11:31;28.17;;;4.25;;
26325;SDS011;14032;52.510;7.342;2022-11-24T03:13:57;25.98;;;4.25;;
26325;SDS011;14032;52.510;7.342;2022-11-24T03:16:22;31.33;;;5.28;;
26325;SDS011;14032;52.510;7.342;2022-11-24T03:18:51;31.20;;;5.57;;
26325;SDS011;14032;52.510;7.342;2022-11-24T03:21:17;22.58;;;4.10;;
26325;SDS011;14032;52.510;7.342;2022-11-24T03:23:44;22.88;;;4.22;;
26325;SDS011;14032;52.510;7.342;2022-11-24T03:26:12;24.60;;;4.57;;
26325;SDS011;14032;52.510;7.342;2022-11-24T03:28:39;22.45;;;3.78;;
26325;SDS011;14032;52.510;7.342;2022-11-24T03:31:05;28.70;;;5.10;;
26325;SDS011;14032;52.510;7.342;2022-11-24T03:33:32;21.38;;;3.88;;
26325;SDS011;14032;52.510;7.342;2022-11-24T03:35:58;22.40;;;3.85;;
26325;SDS011;14032;52.510;7.342;2022-11-24T03:38:24;25.77;;;3.53;;
26325;SDS011;14032;52.510;7.342;2022-11-24T03:40:50;28.58;;;4.57;;
26325;SDS011;14032;52.510;7.342;2022-11-24T03:43:15;26.65;;;3.92;;
26325;SDS011;14032;52.510;7.342;2022-11-24T03:45:43;24.55;;;3.80;;
26325;SDS011;14032;52.510;7.342;2022-11-24T03:48:10;24.52;;;4.03;;
26325;SDS011;14032;52.510;7.342;2022-11-24T03:50:36;19.02;;;3.50;;
26325;SDS011;14032;52.510;7.342;2022-11-24T03:53:02;28.02;;;4.38;;
26325;SDS011;14032;52.510;7.342;2022-11-24T03:55:27;22.88;;;3.42;;
26325;SDS011;14032;52.510;7.342;2022-11-24T03:57:53;21.10;;;4.32;;
26325;SDS011;14032;52.510;7.342;2022-11-24T04:00:18;27.38;;;3.38;;
26325;SDS011;14032;52.510;7.342;2022-11-24T04:02:44;23.58;;;4.07;;
26325;SDS011;14032;52.510;7.342;2022-11-24T04:05:09;21.95;;;3.67;;
26325;SDS011;14032;52.510;7.342;2022-11-24T04:07:35;21.05;;;4.75;;
26325;SDS011;14032;52.510;7.342;2022-11-24T04:10:01;25.50;;;4.15;;
26325;SDS011;14032;52.510;7.342;2022-11-24T04:12:27;24.75;;;4.50;;
26325;SDS011;14032;52.510;7.342;2022-11-24T04:15:11;23.05;;;4.15;;
26325;SDS011;14032;52.510;7.342;2022-11-24T04:17:39;25.42;;;3.72;;
26325;SDS011;14032;52.510;7.342;2022-11-24T04:20:05;32.58;;;4.25;;
26325;SDS011;14032;52.510;7.342;2022-11-24T04:22:31;23.73;;;4.15;;
26325;SDS011;14032;52.510;7.342;2022-11-24T04:24:57;26.55;;;4.30;;
26325;SDS011;14032;52.510;7.342;2022-11-24T04:27:22;27.65;;;3.78;;
26325;SDS011;14032;52.510;7.342;2022-11-24T04:29:48;20.55;;;4.28;;
26325;SDS011;14032;52.510;7.342;2022-11-24T04:32:15;37.33;;;4.28;;
26325;SDS011;14032;52.510;7.342;2022-11-24T04:34:41;33.03;;;4.43;;
26325;SDS011;14032;52.510;7.342;2022-11-24T04:37:06;30.80;;;5.00;;
26325;SDS011;14032;52.510;7.342;2022-11-24T04:39:32;19.80;;;3.92;;
26325;SDS011;14032;52.510;7.342;2022-11-24T04:41:58;23.02;;;4.05;;
26325;SDS011;14032;52.510;7.342;2022-11-24T04:44:23;28.70;;;4.60;;
26325;SDS011;14032;52.510;7.342;2022-11-24T04:46:49;29.02;;;4.30;;
26325;SDS011;14032;52.510;7.342;2022-11-24T04:49:15;25.92;;;4.55;;
26325;SDS011;14032;52.510;7.342;2022-11-24T04:51:41;20.08;;;4.03;;
26325;SDS011;14032;52.510;7.342;2022-11-24T04:54:08;22.75;;;4.07;;
26325;SDS011;14032;52.510;7.342;2022-11-24T04:56:35;19.80;;;4.05;;
26325;SDS011;14032;52.510;7.342;2022-11-24T04:59:00;23.08;;;4.22;;
26325;SDS011;14032;52.510;7.342;2022-11-24T05:01:26;31.75;;;4.70;;
26325;SDS011;14032;52.510;7.342;2022-11-24T05:03:52;24.23;;;5.15;;
26325;SDS011;14032;52.510;7.342;2022-11-24T05:06:18;26.20;;;4.55;;
26325;SDS011;14032;52.510;7.342;2022-11-24T05:08:46;29.63;;;4.93;;
26325;SDS011;14032;52.510;7.342;2022-11-24T05:11:12;29.23;;;4.78;;
26325;SDS011;14032;52.510;7.342;2022-11-24T05:13:38;32.45;;;5.40;;
26325;SDS011;14032;52.510;7.342;2022-11-24T05:16:04;27.08;;;5.32;;
26325;SDS011;14032;52.510;7.342;2022-11-24T05:18:30;21.77;;;4.65;;
26325;SDS011;14032;52.510;7.342;2022-11-24T05:20:56;26.27;;;5.88;;
26325;SDS011;14032;52.510;7.342;2022-11-24T05:23:22;24.17;;;4.70;;
26325;SDS011;14032;52.510;7.342;2022-11-24T05:25:49;28.15;;;5.82;;
26325;SDS011;14032;52.510;7.342;2022-11-24T05:28:15;38.17;;;6.40;;
26325;SDS011;14032;52.510;7.342;2022-11-24T05:30:41;19.95;;;4.75;;
26325;SDS011;14032;52.510;7.342;2022-11-24T05:33:08;24.70;;;4.95;;
26325;SDS011;14032;52.510;7.342;2022-11-24T05:35:37;21.45;;;5.57;;
26325;SDS011;14032;52.510;7.342;2022-11-24T05:38:03;29.45;;;5.20;;
26325;SDS011;14032;52.510;7.342;2022-11-24T05:40:29;24.33;;;4.88;;
26325;SDS011;14032;52.510;7.342;2022-11-24T05:42:55;27.50;;;5.75;;
26325;SDS011;14032;52.510;7.342;2022-11-24T05:45:21;23.60;;;4.38;;
26325;SDS011;14032;52.510;7.342;2022-11-24T05:47:47;34.42;;;4.53;;
26325;SDS011;14032;52.510;7.342;2022-11-24T05:50:14;37.30;;;5.07;;
26325;SDS011;14032;52.510;7.342;2022-11-24T05:52:42;33.13;;;5.07;;
26325;SDS011;14032;52.510;7.342;2022-11-24T05:55:08;26.13;;;4.97;;
26325;SDS011;14032;52.510;7.342;2022-11-24T05:57:35;23.20;;;4.10;;
26325;SDS011;14032;52.510;7.342;2022-11-24T06:00:00;31.98;;;5.13;;
26325;SDS011;14032;52.510;7.342;2022-11-24T06:02:28;34.45;;;5.10;;
26325;SDS011;14032;52.510;7.342;2022-11-24T06:04:54;27.08;;;5.57;;
26325;SDS011;14032;52.510;7.342;2022-11-24T06:07:19;33.92;;;6.10;;
26325;SDS011;14032;52.510;7.342;2022-11-24T06:09:45;36.78;;;6.55;;
26325;SDS011;14032;52.510;7.342;2022-11-24T06:12:13;25.38;;;4.97;;
26325;SDS011;14032;52.510;7.342;2022-11-24T06:14:39;23.98;;;4.53;;
26325;SDS011;14032;52.510;7.342;2022-11-24T06:17:05;28.02;;;5.50;;
26325;SDS011;14032;52.510;7.342;2022-11-24T06:19:31;34.15;;;6.80;;
26325;SDS011;14032;52.510;7.342;2022-11-24T06:21:57;20.65;;;4.97;;
26325;SDS011;14032;52.510;7.342;2022-11-24T06:24:23;25.13;;;5.35;;
26325;SDS011;14032;52.510;7.342;2022-11-24T06:26:48;27.05;;;4.43;;
26325;SDS011;14032;52.510;7.342;2022-11-24T06:29:14;21.38;;;4.40;;
26325;SDS011;14032;52.510;7.342;2022-11-24T06:31:39;16.98;;;3.88;;
26325;SDS011;14032;52.510;7.342;2022-11-24T06:34:06;32.88;;;4.38;;
26325;SDS011;14032;52.510;7.342;2022-11-24T06:36:32;27.55;;;4.72;;
26325;SDS011;14032;52.510;7.342;2022-11-24T06:39:01;27.98;;;4.43;;
26325;SDS011;14032;52.510;7.342;2022-11-24T06:41:27;40.45;;;5.22;;
26325;SDS011;14032;52.510;7.342;2022-11-24T06:43:52;33.70;;;5.07;;
26325;SDS011;14032;52.510;7.342;2022-11-24T06:46:18;33.53;;;4.38;;
26325;SDS011;14032;52.510;7.342;2022-11-24T06:48:46;34.08;;;4.18;;
26325;SDS011;14032;52.510;7.342;2022-11-24T06:51:12;24.55;;;4.80;;
26325;SDS011;14032;52.510;7.342;2022-11-24T06:53:38;23.40;;;4.53;;
26325;SDS011;14032;52.510;7.342;2022-11-24T06:56:06;23.42;;;4.75;;
26325;SDS011;14032;52.510;7.342;2022-11-24T06:58:33;21.92;;;4.68;;
26325;SDS011;14032;52.510;7.342;2022-11-24T07:00:58;37.42;;;5.18;;
26325;SDS011;14032;52.510;7.342;2022-11-24T07:03:24;29.95;;;4.38;;
26325;SDS011;14032;52.510;7.342;2022-11-24T07:05:56;26.67;;;4.50;;
26325;SDS011;14032;52.510;7.342;2022-11-24T07:08:22;24.15;;;4.13;;
26325;SDS011;14032;52.510;7.342;2022-11-24T07:10:50;27.70;;;4.65;;
26325;SDS011;14032;52.510;7.342;2022-11-24T07:13:17;25.83;;;4.30;;
26325;SDS011;14032;52.510;7.342;2022-11-24T07:15:43;20.35;;;3.83;;
26325;SDS011;14032;52.510;7.342;2022-11-24T07:18:08;28.77;;;5.13;;
26325;SDS011;14032;52.510;7.342;2022-11-24T07:20:34;37.65;;;5.22;;
26325;SDS011;14032;52.510;7.342;2022-11-24T07:23:00;26.27;;;4.40;;
26325;SDS011;14032;52.510;7.342;2022-11-24T07:25:26;28.88;;;5.25;;
26325;SDS011;14032;52.510;7.342;2022-11-24T07:27:56;27.40;;;4.88;;
26325;SDS011;14032;52.510;7.342;2022-11-24T07:30:22;35.45;;;5.75;;
26325;SDS011;14032;52.510;7.342;2022-11-24T07:32:49;28.65;;;5.22;;
26325;SDS011;14032;52.510;7.342;2022-11-24T07:35:14;24.33;;;5.32;;
26325;SDS011;14032;52.510;7.342;2022-11-24T07:37:40;27.70;;;4.72;;
26325;SDS011;14032;52.510;7.342;2022-11-24T07:40:05;19.15;;;3.85;;
26325;SDS011;14032;52.510;7.342;2022-11-24T07:42:32;31.98;;;4.80;;
26325;SDS011;14032;52.510;7.342;2022-11-24T07:44:57;22.88;;;4.00;;
26325;SDS011;14032;52.510;7.342;2022-11-24T07:47:23;32.05;;;5.28;;
26325;SDS011;14032;52.510;7.342;2022-11-24T07:49:48;31.23;;;4.30;;
26325;SDS011;14032;52.510;7.342;2022-11-24T07:52:14;26.20;;;4.75;;
26325;SDS011;14032;52.510;7.342;2022-11-24T07:54:41;21.40;;;4.28;;
26325;SDS011;14032;52.510;7.342;2022-11-24T07:57:06;30.10;;;4.72;;
26325;SDS011;14032;52.510;7.342;2022-11-24T07:59:32;24.73;;;4.15;;
26325;SDS011;14032;52.510;7.342;2022-11-24T08:01:57;24.40;;;5.20;;
26325;SDS011;14032;52.510;7.342;2022-11-24T08:04:23;26.73;;;3.92;;
26325;SDS011;14032;52.510;7.342;2022-11-24T08:06:49;23.02;;;5.00;;
26325;SDS011;14032;52.510;7.342;2022-11-24T08:09:14;26.02;;;4.07;;
26325;SDS011;14032;52.510;7.342;2022-11-24T08:11:40;26.70;;;4.80;;
26325;SDS011;14032;52.510;7.342;2022-11-24T08:14:05;17.70;;;3.72;;
26325;SDS011;14032;52.510;7.342;2022-11-24T08:16:31;25.27;;;4.35;;
26325;SDS011;14032;52.510;7.342;2022-11-24T08:18:57;30.58;;;4.55;;
26325;SDS011;14032;52.510;7.342;2022-11-24T08:21:22;26.77;;;4.53;;
26325;SDS011;14032;52.510;7.342;2022-11-24T08:23:54;22.77;;;4.60;;
26325;SDS011;14032;52.510;7.342;2022-11-24T08:26:20;23.02;;;3.90;;
26325;SDS011;14032;52.510;7.342;2022-11-24T08:28:47;20.15;;;3.83;;
26325;SDS011;14032;52.510;7.342;2022-11-24T08:31:17;12.30;;;3.78;;
26325;SDS011;14032;52.510;7.342;2022-11-24T08:33:43;15.15;;;3.78;;
26325;SDS011;14032;52.510;7.342;2022-11-24T08:36:10;20.75;;;3.45;;
26325;SDS011;14032;52.510;7.342;2022-11-24T08:38:40;18.38;;;4.00;;
26325;SDS011;14032;52.510;7.342;2022-11-24T08:41:08;14.43;;;3.25;;
26325;SDS011;14032;52.510;7.342;2022-11-24T08:43:35;16.63;;;3.35;;
26325;SDS011;14032;52.510;7.342;2022-11-24T08:46:02;20.42;;;3.60;;
26325;SDS011;14032;52.510;7.342;2022-11-24T08:48:32;14.35;;;3.60;;
26325;SDS011;14032;52.510;7.342;2022-11-24T08:50:58;12.65;;;3.33;;
26325;SDS011;14032;52.510;7.342;2022-11-24T08:53:34;8.95;;;2.78;;
26325;SDS011;14032;52.510;7.342;2022-11-24T08:56:00;16.42;;;3.50;;
26325;SDS011;14032;52.510;7.342;2022-11-24T08:58:27;19.77;;;3.42;;
26325;SDS011;14032;52.510;7.342;2022-11-24T09:00:54;11.20;;;3.22;;
26325;SDS011;14032;52.510;7.342;2022-11-24T09:03:19;16.60;;;4.40;;
26325;SDS011;14032;52.510;7.342;2022-11-24T09:05:45;15.32;;;3.03;;
26325;SDS011;14032;52.510;7.342;2022-11-24T09:08:10;8.30;;;2.65;;
26325;SDS011;14032;52.510;7.342;2022-11-24T09:10:36;12.35;;;3.80;;
26325;SDS011;14032;52.510;7.342;2022-11-24T09:13:02;12.63;;;3.05;;
26325;SDS011;14032;52.510;7.342;2022-11-24T09:15:27;9.80;;;2.97;;
26325;SDS011;14032;52.510;7.342;2022-11-24T09:17:53;13.63;;;2.90;;
26325;SDS011;14032;52.510;7.342;2022-11-24T09:20:18;8.93;;;3.08;;
26325;SDS011;14032;52.510;7.342;2022-11-24T09:22:45;13.75;;;3.22;;
26325;SDS011;14032;52.510;7.342;2022-11-24T09:25:11;11.02;;;3.13;;
26325;SDS011;14032;52.510;7.342;2022-11-24T09:27:38;10.23;;;2.90;;
26325;SDS011;14032;52.510;7.342;2022-11-24T09:30:04;11.15;;;2.95;;
26325;SDS011;14032;52.510;7.342;2022-11-24T09:32:30;15.05;;;3.20;;
26325;SDS011;14032;52.510;7.342;2022-11-24T09:34:56;14.05;;;3.38;;
26325;SDS011;14032;52.510;7.342;2022-11-24T09:37:21;10.43;;;2.90;;
26325;SDS011;14032;52.510;7.342;2022-11-24T09:39:47;9.55;;;2.80;;
26325;SDS011;14032;52.510;7.342;2022-11-24T09:42:13;6.75;;;2.85;;
26325;SDS011;14032;52.510;7.342;2022-11-24T09:50:41;12.02;;;3.05;;
26325;SDS011;14032;52.510;7.342;2022-11-24T09:53:18;8.60;;;2.83;;
26325;SDS011;14032;52.510;7.342;2022-11-24T09:56:23;10.68;;;2.70;;
26325;SDS011;14032;52.510;7.342;2022-11-24T09:59:13;8.43;;;3.05;;
26325;SDS011;14032;52.510;7.342;2022-11-24T10:01:44;8.48;;;2.92;;
26325;SDS011;14032;52.510;7.342;2022-11-24T10:04:34;9.38;;;2.95;;
26325;SDS011;14032;52.510;7.342;2022-11-24T10:07:06;10.38;;;2.58;;
26325;SDS011;14032;52.510;7.342;2022-11-24T10:28:46;7.97;;;4.03;;
26325;SDS011;14032;52.510;7.342;2022-11-24T10:33:58;8.93;;;4.72;;
26325;SDS011;14032;52.510;7.342;2022-11-24T10:36:41;9.05;;;4.80;;
26325;SDS011;14032;52.510;7.342;2022-11-24T10:39:35;10.18;;;4.55;;
26325;SDS011;14032;52.510;7.342;2022-11-24T10:42:17;10.55;;;4.70;;
26325;SDS011;14032;52.510;7.342;2022-11-24T10:44:58;10.57;;;4.40;;
26325;SDS011;14032;52.510;7.342;2022-11-24T10:47:25;13.63;;;5.10;;
26325;SDS011;14032;52.510;7.342;2022-11-24T10:50:01;10.05;;;5.57;;
26325;SDS011;14032;52.510;7.342;2022-11-24T10:52:46;9.70;;;5.78;;
26325;SDS011;14032;52.510;7.342;2022-11-24T10:58:41;13.48;;;6.07;;
26325;SDS011;14032;52.510;7.342;2022-11-24T11:03:48;13.02;;;6.85;;
26325;SDS011;14032;52.510;7.342;2022-11-24T11:06:26;17.13;;;7.32;;
26325;SDS011;14032;52.510;7.342;2022-11-24T11:09:17;11.38;;;6.90;;
26325;SDS011;14032;52.510;7.342;2022-11-24T11:11:43;12.98;;;6.68;;
26325;SDS011;14032;52.510;7.342;2022-11-24T11:14:12;13.00;;;7.20;;
26325;SDS011;14032;52.510;7.342;2022-11-24T11:16:55;16.63;;;6.43;;
26325;SDS011;14032;52.510;7.342;2022-11-24T11:22:12;13.68;;;7.03;;
26325;SDS011;14032;52.510;7.342;2022-11-24T11:25:03;12.70;;;6.75;;
26325;SDS011;14032;52.510;7.342;2022-11-24T11:27:49;13.30;;;6.90;;
26325;SDS011;14032;52.510;7.342;2022-11-24T11:30:19;16.00;;;7.13;;
26325;SDS011;14032;52.510;7.342;2022-11-24T11:32:54;15.68;;;7.15;;
26325;SDS011;14032;52.510;7.342;2022-11-24T11:35:22;18.20;;;7.43;;
26325;SDS011;14032;52.510;7.342;2022-11-24T11:37:51;15.55;;;7.30;;
26325;SDS011;14032;52.510;7.342;2022-11-24T11:40:24;15.35;;;7.00;;
26325;SDS011;14032;52.510;7.342;2022-11-24T11:42:55;16.20;;;7.53;;
26325;SDS011;14032;52.510;7.342;2022-11-24T12:23:59;14.93;;;7.20;;
26325;SDS011;14032;52.510;7.342;2022-11-24T12:29:29;14.98;;;6.60;;
26325;SDS011;14032;52.510;7.342;2022-11-24T12:32:21;15.02;;;7.32;;
26325;SDS011;14032;52.510;7.342;2022-11-24T12:40:37;14.05;;;6.30;;
26325;SDS011;14032;52.510;7.342;2022-11-24T12:43:28;15.68;;;6.07;;
26325;SDS011;14032;52.510;7.342;2022-11-24T12:51:30;17.98;;;6.40;;
26325;SDS011;14032;52.510;7.342;2022-11-24T12:54:00;15.85;;;5.90;;
26325;SDS011;14032;52.510;7.342;2022-11-24T12:56:36;15.13;;;6.00;;
26325;SDS011;14032;52.510;7.342;2022-11-24T13:04:33;13.90;;;5.70;;
26325;SDS011;14032;52.510;7.342;2022-11-24T13:15:28;21.55;;;6.30;;
26325;SDS011;14032;52.510;7.342;2022-11-24T13:17:55;17.38;;;6.20;;
26325;SDS011;14032;52.510;7.342;2022-11-24T13:20:28;21.00;;;6.43;;
26325;SDS011;14032;52.510;7.342;2022-11-24T13:22:59;15.77;;;5.88;;
26325;SDS011;14032;52.510;7.342;2022-11-24T13:25:33;18.52;;;6.68;;
26325;SDS011;14032;52.510;7.342;2022-11-24T13:28:00;25.80;;;7.25;;
26325;SDS011;14032;52.510;7.342;2022-11-24T13:35:37;20.73;;;6.43;;
26325;SDS011;14032;52.510;7.342;2022-11-24T13:41:07;15.45;;;6.00;;
26325;SDS011;14032;52.510;7.342;2022-11-24T13:43:34;17.67;;;6.20;;
26325;SDS011;14032;52.510;7.342;2022-11-24T13:46:01;22.30;;;5.18;;
26325;SDS011;14032;52.510;7.342;2022-11-24T13:58:45;14.35;;;4.80;;
26325;SDS011;14032;52.510;7.342;2022-11-24T14:04:04;18.20;;;4.40;;
26325;SDS011;14032;52.510;7.342;2022-11-24T14:06:44;23.83;;;3.95;;
26325;SDS011;14032;52.510;7.342;2022-11-24T14:09:30;19.92;;;4.35;;
26325;SDS011;14032;52.510;7.342;2022-11-24T14:12:05;15.57;;;3.63;;
26325;SDS011;14032;52.510;7.342;2022-11-24T14:14:40;15.13;;;4.10;;
26325;SDS011;14032;52.510;7.342;2022-11-24T14:19:42;19.15;;;3.53;;
26325;SDS011;14032;52.510;7.342;2022-11-24T14:22:20;16.25;;;4.10;;
26325;SDS011;14032;52.510;7.342;2022-11-24T14:24:52;18.92;;;3.70;;
26325;SDS011;14032;52.510;7.342;2022-11-24T14:27:25;17.67;;;3.90;;
26325;SDS011;14032;52.510;7.342;2022-11-24T14:30:22;18.00;;;3.65;;
26325;SDS011;14032;52.510;7.342;2022-11-24T14:33:00;14.88;;;3.92;;
26325;SDS011;14032;52.510;7.342;2022-11-24T14:37:54;19.42;;;4.38;;
26325;SDS011;14032;52.510;7.342;2022-11-24T14:43:16;22.17;;;3.97;;
26325;SDS011;14032;52.510;7.342;2022-11-24T14:48:26;24.98;;;4.38;;
26325;SDS011;14032;52.510;7.342;2022-11-24T14:53:49;22.95;;;3.90;;
26325;SDS011;14032;52.510;7.342;2022-11-24T14:58:50;28.73;;;4.28;;
26325;SDS011;14032;52.510;7.342;2022-11-24T15:06:48;16.70;;;3.25;;
26325;SDS011;14032;52.510;7.342;2022-11-24T15:17:29;12.63;;;3.40;;
26325;SDS011;14032;52.510;7.342;2022-11-24T15:22:33;19.75;;;4.10;;
26325;SDS011;14032;52.510;7.342;2022-11-24T15:27:50;20.65;;;3.80;;
26325;SDS011;14032;52.510;7.342;2022-11-24T15:30:16;20.38;;;4.30;;
26325;SDS011;14032;52.510;7.342;2022-11-24T15:33:16;14.27;;;3.15;;
26325;SDS011;14032;52.510;7.342;2022-11-24T15:35:36;24.55;;;4.20;;
26325;SDS011;14032;52.510;7.342;2022-11-24T15:38:02;17.48;;;3.67;;
26325;SDS011;14032;52.510;7.342;2022-11-24T15:40:27;17.70;;;3.45;;
26325;SDS011;14032;52.510;7.342;2022-11-24T15:42:54;18.40;;;3.70;;
26325;SDS011;14032;52.510;7.342;2022-11-24T15:45:21;16.10;;;3.58;;
26325;SDS011;14032;52.510;7.342;2022-11-24T15:47:50;22.33;;;3.97;;
26325;SDS011;14032;52.510;7.342;2022-11-24T15:50:16;21.23;;;4.30;;
26325;SDS011;14032;52.510;7.342;2022-11-24T15:52:42;18.15;;;4.28;;
26325;SDS011;14032;52.510;7.342;2022-11-24T15:55:16;21.92;;;3.97;;
26325;SDS011;14032;52.510;7.342;2022-11-24T15:57:43;16.30;;;4.25;;
26325;SDS011;14032;52.510;7.342;2022-11-24T16:00:16;16.40;;;3.58;;
26325;SDS011;14032;52.510;7.342;2022-11-24T16:02:43;19.33;;;3.40;;
26325;SDS011;14032;52.510;7.342;2022-11-24T16:05:09;24.38;;;4.85;;
26325;SDS011;14032;52.510;7.342;2022-11-24T16:07:36;21.08;;;4.57;;
26325;SDS011;14032;52.510;7.342;2022-11-24T16:10:01;24.48;;;5.03;;
26325;SDS011;14032;52.510;7.342;2022-11-24T16:12:27;22.65;;;4.85;;
26325;SDS011;14032;52.510;7.342;2022-11-24T16:14:53;20.05;;;4.38;;
26325;SDS011;14032;52.510;7.342;2022-11-24T16:17:19;23.58;;;4.68;;
26325;SDS011;14032;52.510;7.342;2022-11-24T16:19:44;20.15;;;4.53;;
26325;SDS011;14032;52.510;7.342;2022-11-24T16:22:10;16.90;;;4.40;;
26325;SDS011;14032;52.510;7.342;2022-11-24T16:24:35;19.60;;;4.50;;
26325;SDS011;14032;52.510;7.342;2022-11-24T16:27:01;16.80;;;3.80;;
26325;SDS011;14032;52.510;7.342;2022-11-24T16:29:26;19.70;;;4.63;;
26325;SDS011;14032;52.510;7.342;2022-11-24T16:31:52;19.60;;;4.28;;
26325;SDS011;14032;52.510;7.342;2022-11-24T16:34:18;16.80;;;3.65;;
26325;SDS011;14032;52.510;7.342;2022-11-24T16:36:44;22.00;;;4.60;;
26325;SDS011;14032;52.510;7.342;2022-11-24T16:39:10;19.58;;;4.30;;
26325;SDS011;14032;52.510;7.342;2022-11-24T16:41:35;17.30;;;4.05;;
26325;SDS011;14032;52.510;7.342;2022-11-24T16:44:01;22.98;;;4.55;;
26325;SDS011;14032;52.510;7.342;2022-11-24T16:46:27;14.80;;;3.85;;
26325;SDS011;14032;52.510;7.342;2022-11-24T16:48:53;25.40;;;5.07;;
26325;SDS011;14032;52.510;7.342;2022-11-24T16:51:21;20.80;;;5.00;;
26325;SDS011;14032;52.510;7.342;2022-11-24T16:53:52;18.83;;;5.18;;
26325;SDS011;14032;52.510;7.342;2022-11-24T16:56:22;21.35;;;4.93;;
26325;SDS011;14032;52.510;7.342;2022-11-24T16:58:47;15.30;;;4.47;;
26325;SDS011;14032;52.510;7.342;2022-11-24T17:01:13;21.08;;;5.25;;
26325;SDS011;14032;52.510;7.342;2022-11-24T17:03:39;19.90;;;4.50;;
26325;SDS011;14032;52.510;7.342;2022-11-24T17:06:06;18.67;;;4.63;;
26325;SDS011;14032;52.510;7.342;2022-11-24T17:08:36;19.27;;;4.32;;
26325;SDS011;14032;52.510;7.342;2022-11-24T17:11:13;20.00;;;5.15;;
26325;SDS011;14032;52.510;7.342;2022-11-24T17:13:43;22.73;;;4.88;;
26325;SDS011;14032;52.510;7.342;2022-11-24T17:16:11;24.73;;;5.22;;
26325;SDS011;14032;52.510;7.342;2022-11-24T17:18:38;23.55;;;6.43;;
26325;SDS011;14032;52.510;7.342;2022-11-24T17:21:05;20.38;;;5.22;;
26325;SDS011;14032;52.510;7.342;2022-11-24T17:23:32;23.63;;;5.40;;
26325;SDS011;14032;52.510;7.342;2022-11-24T17:26:01;30.90;;;6.15;;
26325;SDS011;14032;52.510;7.342;2022-11-24T17:28:27;22.17;;;5.40;;
26325;SDS011;14032;52.510;7.342;2022-11-24T17:30:53;25.27;;;5.25;;
26325;SDS011;14032;52.510;7.342;2022-11-24T17:33:19;20.25;;;5.85;;